sensor_id;sensor_type;location;lat;lon;timestamp;P1;durP1;ratioP1;P2;durP2;ratioP2
1370;SDS011;14306;49.942;11.570;2023-09-19T00:01:51;6.40;;;5.33;;
1370;SDS011;14306;49.942;11.570;2023-09-19T00:04:19;10.43;;;5.87;;
1370;SDS011;14306;49.942;11.570;2023-09-19T00:06:55;6.97;;;4.70;;
1370;SDS011;14306;49.942;11.570;2023-09-19T00:09:24;10.33;;;5.60;;
1370;SDS011;14306;49.942;11.570;2023-09-19T00:11:54;7.97;;;5.57;;
1370;SDS011;14306;49.942;11.570;2023-09-19T00:14:24;7.40;;;5.20;;
1370;SDS011;14306;49.942;11.570;2023-09-19T00:16:54;8.17;;;4.83;;
1370;SDS011;14306;49.942;11.570;2023-09-19T00:19:23;10.13;;;5.33;;
1370;SDS011;14306;49.942;11.570;2023-09-19T00:21:51;5.47;;;4.57;;
1370;SDS011;14306;49.942;11.570;2023-09-19T00:24:20;7.13;;;5.30;;
1370;SDS011;14306;49.942;11.570;2023-09-19T00:26:49;8.23;;;4.40;;
1370;SDS011;14306;49.942;11.570;2023-09-19T00:29:18;6.63;;;4.90;;
1370;SDS011;14306;49.942;11.570;2023-09-19T00:31:46;11.23;;;4.73;;
1370;SDS011;14306;49.942;11.570;2023-09-19T00:34:16;10.13;;;4.73;;
1370;SDS011;14306;49.942;11.570;2023-09-19T00:36:45;9.50;;;5.03;;
1370;SDS011;14306;49.942;11.570;2023-09-19T00:39:13;7.97;;;5.77;;
1370;SDS011;14306;49.942;11.570;2023-09-19T00:41:42;8.37;;;5.90;;
1370;SDS011;14306;49.942;11.570;2023-09-19T00:44:11;14.23;;;7.87;;
1370;SDS011;14306;49.942;11.570;2023-09-19T00:46:40;10.93;;;8.33;;
1370;SDS011;14306;49.942;11.570;2023-09-19T00:49:08;13.53;;;7.20;;
1370;SDS011;14306;49.942;11.570;2023-09-19T00:51:40;17.70;;;7.97;;
1370;SDS011;14306;49.942;11.570;2023-09-19T00:54:13;10.03;;;7.23;;
1370;SDS011;14306;49.942;11.570;2023-09-19T00:56:45;10.40;;;6.77;;
1370;SDS011;14306;49.942;11.570;2023-09-19T00:59:13;10.53;;;6.67;;
1370;SDS011;14306;49.942;11.570;2023-09-19T01:01:42;9.30;;;5.90;;
1370;SDS011;14306;49.942;11.570;2023-09-19T01:04:12;9.93;;;6.33;;
1370;SDS011;14306;49.942;11.570;2023-09-19T01:06:42;10.53;;;5.20;;
1370;SDS011;14306;49.942;11.570;2023-09-19T01:09:12;11.23;;;5.83;;
1370;SDS011;14306;49.942;11.570;2023-09-19T01:11:40;15.83;;;6.20;;
1370;SDS011;14306;49.942;11.570;2023-09-19T01:14:16;7.03;;;5.10;;
1370;SDS011;14306;49.942;11.570;2023-09-19T01:16:56;8.93;;;5.93;;
1370;SDS011;14306;49.942;11.570;2023-09-19T01:19:42;8.37;;;4.80;;
1370;SDS011;14306;49.942;11.570;2023-09-19T01:22:42;7.80;;;4.00;;
1370;SDS011;14306;49.942;11.570;2023-09-19T01:25:26;7.50;;;4.23;;
1370;SDS011;14306;49.942;11.570;2023-09-19T01:28:16;6.80;;;3.40;;
1370;SDS011;14306;49.942;11.570;2023-09-19T01:30:58;5.83;;;4.00;;
1370;SDS011;14306;49.942;11.570;2023-09-19T01:33:39;3.70;;;3.00;;
1370;SDS011;14306;49.942;11.570;2023-09-19T01:36:24;9.60;;;3.60;;
1370;SDS011;14306;49.942;11.570;2023-09-19T01:38:53;6.10;;;2.97;;
1370;SDS011;14306;49.942;11.570;2023-09-19T01:41:26;5.40;;;3.50;;
1370;SDS011;14306;49.942;11.570;2023-09-19T01:43:58;7.43;;;3.00;;
1370;SDS011;14306;49.942;11.570;2023-09-19T01:46:32;7.77;;;3.00;;
1370;SDS011;14306;49.942;11.570;2023-09-19T01:49:08;4.90;;;2.50;;
1370;SDS011;14306;49.942;11.570;2023-09-19T01:51:50;3.70;;;2.77;;
1370;SDS011;14306;49.942;11.570;2023-09-19T01:54:26;4.80;;;2.77;;
1370;SDS011;14306;49.942;11.570;2023-09-19T01:56:59;5.03;;;2.73;;
1370;SDS011;14306;49.942;11.570;2023-09-19T01:59:34;10.30;;;2.70;;
1370;SDS011;14306;49.942;11.570;2023-09-19T02:02:08;5.40;;;2.40;;
1370;SDS011;14306;49.942;11.570;2023-09-19T02:04:37;3.90;;;2.30;;
1370;SDS011;14306;49.942;11.570;2023-09-19T02:07:06;3.60;;;2.53;;
1370;SDS011;14306;49.942;11.570;2023-09-19T02:09:34;4.10;;;2.50;;
1370;SDS011;14306;49.942;11.570;2023-09-19T02:12:06;5.37;;;2.17;;
1370;SDS011;14306;49.942;11.570;2023-09-19T02:14:34;2.63;;;2.20;;
1370;SDS011;14306;49.942;11.570;2023-09-19T02:17:03;3.57;;;2.70;;
1370;SDS011;14306;49.942;11.570;2023-09-19T02:19:35;5.43;;;2.50;;
1370;SDS011;14306;49.942;11.570;2023-09-19T02:22:05;2.43;;;2.00;;
1370;SDS011;14306;49.942;11.570;2023-09-19T02:24:37;6.17;;;2.43;;
1370;SDS011;14306;49.942;11.570;2023-09-19T02:27:06;3.63;;;2.47;;
1370;SDS011;14306;49.942;11.570;2023-09-19T02:29:34;2.63;;;2.10;;
1370;SDS011;14306;49.942;11.570;2023-09-19T02:32:03;9.53;;;3.10;;
1370;SDS011;14306;49.942;11.570;2023-09-19T02:34:34;3.13;;;2.27;;
1370;SDS011;14306;49.942;11.570;2023-09-19T02:37:03;3.87;;;2.23;;
1370;SDS011;14306;49.942;11.570;2023-09-19T02:39:33;4.20;;;2.33;;
1370;SDS011;14306;49.942;11.570;2023-09-19T02:42:01;5.33;;;2.87;;
1370;SDS011;14306;49.942;11.570;2023-09-19T02:44:31;5.17;;;2.90;;
1370;SDS011;14306;49.942;11.570;2023-09-19T02:47:00;2.90;;;2.50;;
1370;SDS011;14306;49.942;11.570;2023-09-19T02:49:29;3.77;;;2.80;;
1370;SDS011;14306;49.942;11.570;2023-09-19T02:51:59;6.63;;;2.50;;
1370;SDS011;14306;49.942;11.570;2023-09-19T02:54:28;3.67;;;1.90;;
1370;SDS011;14306;49.942;11.570;2023-09-19T02:56:56;3.10;;;2.13;;
1370;SDS011;14306;49.942;11.570;2023-09-19T02:59:26;3.57;;;2.30;;
1370;SDS011;14306;49.942;11.570;2023-09-19T03:01:54;4.30;;;1.97;;
1370;SDS011;14306;49.942;11.570;2023-09-19T03:04:24;2.13;;;1.47;;
1370;SDS011;14306;49.942;11.570;2023-09-19T03:06:55;9.93;;;2.13;;
1370;SDS011;14306;49.942;11.570;2023-09-19T03:09:28;4.63;;;2.10;;
1370;SDS011;14306;49.942;11.570;2023-09-19T03:11:57;6.13;;;1.77;;
1370;SDS011;14306;49.942;11.570;2023-09-19T03:14:26;2.20;;;2.00;;
1370;SDS011;14306;49.942;11.570;2023-09-19T03:16:57;10.87;;;2.07;;
1370;SDS011;14306;49.942;11.570;2023-09-19T03:19:26;4.30;;;2.27;;
1370;SDS011;14306;49.942;11.570;2023-09-19T03:21:55;3.53;;;1.90;;
1370;SDS011;14306;49.942;11.570;2023-09-19T03:24:24;3.10;;;2.00;;
1370;SDS011;14306;49.942;11.570;2023-09-19T03:26:55;2.70;;;1.40;;
1370;SDS011;14306;49.942;11.570;2023-09-19T03:29:24;4.67;;;1.97;;
1370;SDS011;14306;49.942;11.570;2023-09-19T03:31:53;4.20;;;1.80;;
1370;SDS011;14306;49.942;11.570;2023-09-19T03:34:22;3.60;;;1.30;;
1370;SDS011;14306;49.942;11.570;2023-09-19T03:36:50;1.70;;;1.47;;
1370;SDS011;14306;49.942;11.570;2023-09-19T03:39:19;2.20;;;1.57;;
1370;SDS011;14306;49.942;11.570;2023-09-19T03:41:47;5.70;;;1.67;;
1370;SDS011;14306;49.942;11.570;2023-09-19T03:44:18;5.13;;;1.60;;
1370;SDS011;14306;49.942;11.570;2023-09-19T03:46:46;2.27;;;1.93;;
1370;SDS011;14306;49.942;11.570;2023-09-19T03:49:15;5.20;;;2.37;;
1370;SDS011;14306;49.942;11.570;2023-09-19T03:51:43;3.67;;;1.80;;
1370;SDS011;14306;49.942;11.570;2023-09-19T03:54:11;4.33;;;2.60;;
1370;SDS011;14306;49.942;11.570;2023-09-19T03:56:40;7.33;;;2.10;;
1370;SDS011;14306;49.942;11.570;2023-09-19T03:59:09;3.47;;;2.37;;
1370;SDS011;14306;49.942;11.570;2023-09-19T04:01:39;6.20;;;2.37;;
1370;SDS011;14306;49.942;11.570;2023-09-19T04:04:08;2.70;;;1.80;;
1370;SDS011;14306;49.942;11.570;2023-09-19T04:06:37;2.30;;;1.57;;
1370;SDS011;14306;49.942;11.570;2023-09-19T04:09:05;3.47;;;1.10;;
1370;SDS011;14306;49.942;11.570;2023-09-19T04:11:36;1.47;;;1.23;;
1370;SDS011;14306;49.942;11.570;2023-09-19T04:14:04;5.23;;;1.50;;
1370;SDS011;14306;49.942;11.570;2023-09-19T04:16:33;1.83;;;1.20;;
1370;SDS011;14306;49.942;11.570;2023-09-19T04:19:03;2.70;;;1.60;;
1370;SDS011;14306;49.942;11.570;2023-09-19T04:21:32;2.13;;;1.13;;
1370;SDS011;14306;49.942;11.570;2023-09-19T04:24:00;1.43;;;1.00;;
1370;SDS011;14306;49.942;11.570;2023-09-19T04:26:29;3.20;;;1.57;;
1370;SDS011;14306;49.942;11.570;2023-09-19T04:28:57;2.57;;;1.80;;
1370;SDS011;14306;49.942;11.570;2023-09-19T04:31:27;1.90;;;1.37;;
1370;SDS011;14306;49.942;11.570;2023-09-19T04:33:56;2.57;;;1.20;;
1370;SDS011;14306;49.942;11.570;2023-09-19T04:36:27;6.10;;;1.37;;
1370;SDS011;14306;49.942;11.570;2023-09-19T04:39:02;2.80;;;1.33;;
1370;SDS011;14306;49.942;11.570;2023-09-19T04:41:33;2.00;;;1.43;;
1370;SDS011;14306;49.942;11.570;2023-09-19T04:44:04;3.17;;;1.83;;
1370;SDS011;14306;49.942;11.570;2023-09-19T04:46:32;5.50;;;1.37;;
1370;SDS011;14306;49.942;11.570;2023-09-19T04:49:00;5.63;;;1.40;;
1370;SDS011;14306;49.942;11.570;2023-09-19T04:51:30;2.80;;;1.23;;
1370;SDS011;14306;49.942;11.570;2023-09-19T04:54:01;1.63;;;1.20;;
1370;SDS011;14306;49.942;11.570;2023-09-19T04:56:30;8.33;;;1.90;;
1370;SDS011;14306;49.942;11.570;2023-09-19T04:59:00;3.13;;;1.60;;
1370;SDS011;14306;49.942;11.570;2023-09-19T05:01:29;2.73;;;1.93;;
1370;SDS011;14306;49.942;11.570;2023-09-19T05:03:58;2.60;;;1.63;;
1370;SDS011;14306;49.942;11.570;2023-09-19T05:06:26;4.00;;;1.73;;
1370;SDS011;14306;49.942;11.570;2023-09-19T05:08:56;3.97;;;2.10;;
1370;SDS011;14306;49.942;11.570;2023-09-19T05:11:24;3.33;;;2.33;;
1370;SDS011;14306;49.942;11.570;2023-09-19T05:13:53;3.63;;;1.57;;
1370;SDS011;14306;49.942;11.570;2023-09-19T05:16:21;2.10;;;1.87;;
1370;SDS011;14306;49.942;11.570;2023-09-19T05:18:50;1.63;;;1.40;;
1370;SDS011;14306;49.942;11.570;2023-09-19T05:21:18;2.87;;;2.13;;
1370;SDS011;14306;49.942;11.570;2023-09-19T05:23:47;4.77;;;1.60;;
1370;SDS011;14306;49.942;11.570;2023-09-19T05:26:17;2.90;;;2.07;;
1370;SDS011;14306;49.942;11.570;2023-09-19T05:28:46;3.63;;;1.80;;
1370;SDS011;14306;49.942;11.570;2023-09-19T05:31:15;1.93;;;1.73;;
1370;SDS011;14306;49.942;11.570;2023-09-19T05:33:44;2.70;;;2.13;;
1370;SDS011;14306;49.942;11.570;2023-09-19T05:36:13;4.13;;;2.00;;
1370;SDS011;14306;49.942;11.570;2023-09-19T05:38:43;8.50;;;2.47;;
1370;SDS011;14306;49.942;11.570;2023-09-19T05:41:12;7.87;;;1.90;;
1370;SDS011;14306;49.942;11.570;2023-09-19T05:43:43;2.73;;;1.70;;
1370;SDS011;14306;49.942;11.570;2023-09-19T05:46:11;5.03;;;1.83;;
1370;SDS011;14306;49.942;11.570;2023-09-19T05:48:40;6.20;;;1.93;;
1370;SDS011;14306;49.942;11.570;2023-09-19T05:51:08;6.00;;;2.10;;
1370;SDS011;14306;49.942;11.570;2023-09-19T05:53:37;2.50;;;2.30;;
1370;SDS011;14306;49.942;11.570;2023-09-19T05:56:05;5.37;;;2.10;;
1370;SDS011;14306;49.942;11.570;2023-09-19T05:58:36;5.83;;;2.10;;
1370;SDS011;14306;49.942;11.570;2023-09-19T06:01:06;5.27;;;1.90;;
1370;SDS011;14306;49.942;11.570;2023-09-19T06:03:36;4.47;;;1.70;;
1370;SDS011;14306;49.942;11.570;2023-09-19T06:06:05;2.33;;;2.03;;
1370;SDS011;14306;49.942;11.570;2023-09-19T06:08:34;2.20;;;2.00;;
1370;SDS011;14306;49.942;11.570;2023-09-19T06:11:03;3.93;;;1.60;;
1370;SDS011;14306;49.942;11.570;2023-09-19T06:13:34;1.73;;;1.43;;
1370;SDS011;14306;49.942;11.570;2023-09-19T06:16:02;2.67;;;1.90;;
1370;SDS011;14306;49.942;11.570;2023-09-19T06:18:33;6.53;;;2.27;;
1370;SDS011;14306;49.942;11.570;2023-09-19T06:21:02;4.07;;;1.67;;
1370;SDS011;14306;49.942;11.570;2023-09-19T06:23:34;6.60;;;2.10;;
1370;SDS011;14306;49.942;11.570;2023-09-19T06:26:03;3.20;;;1.47;;
1370;SDS011;14306;49.942;11.570;2023-09-19T06:28:33;5.00;;;1.70;;
1370;SDS011;14306;49.942;11.570;2023-09-19T06:31:02;2.60;;;1.30;;
1370;SDS011;14306;49.942;11.570;2023-09-19T06:33:36;2.33;;;1.60;;
1370;SDS011;14306;49.942;11.570;2023-09-19T06:36:06;2.37;;;1.50;;
1370;SDS011;14306;49.942;11.570;2023-09-19T06:38:35;4.50;;;1.77;;
1370;SDS011;14306;49.942;11.570;2023-09-19T06:41:05;2.70;;;1.87;;
1370;SDS011;14306;49.942;11.570;2023-09-19T06:43:35;2.80;;;1.37;;
1370;SDS011;14306;49.942;11.570;2023-09-19T06:46:04;3.07;;;1.63;;
1370;SDS011;14306;49.942;11.570;2023-09-19T06:48:35;2.60;;;1.70;;
1370;SDS011;14306;49.942;11.570;2023-09-19T06:51:04;4.27;;;2.10;;
1370;SDS011;14306;49.942;11.570;2023-09-19T06:53:32;5.63;;;2.40;;
1370;SDS011;14306;49.942;11.570;2023-09-19T06:56:02;4.80;;;1.90;;
1370;SDS011;14306;49.942;11.570;2023-09-19T06:58:33;2.93;;;1.60;;
1370;SDS011;14306;49.942;11.570;2023-09-19T07:01:03;3.73;;;1.47;;
1370;SDS011;14306;49.942;11.570;2023-09-19T07:03:31;4.50;;;1.10;;
1370;SDS011;14306;49.942;11.570;2023-09-19T07:06:01;1.43;;;1.20;;
1370;SDS011;14306;49.942;11.570;2023-09-19T07:08:31;2.53;;;1.30;;
1370;SDS011;14306;49.942;11.570;2023-09-19T07:10:59;2.20;;;1.40;;
1370;SDS011;14306;49.942;11.570;2023-09-19T07:13:29;1.30;;;1.20;;
1370;SDS011;14306;49.942;11.570;2023-09-19T07:15:57;1.60;;;1.20;;
1370;SDS011;14306;49.942;11.570;2023-09-19T07:18:27;2.23;;;1.30;;
1370;SDS011;14306;49.942;11.570;2023-09-19T07:20:56;1.60;;;1.40;;
1370;SDS011;14306;49.942;11.570;2023-09-19T07:23:29;1.10;;;0.90;;
1370;SDS011;14306;49.942;11.570;2023-09-19T07:26:01;2.20;;;1.53;;
1370;SDS011;14306;49.942;11.570;2023-09-19T07:28:32;1.87;;;0.93;;
1370;SDS011;14306;49.942;11.570;2023-09-19T07:31:02;5.50;;;1.50;;
1370;SDS011;14306;49.942;11.570;2023-09-19T07:33:31;5.47;;;1.10;;
1370;SDS011;14306;49.942;11.570;2023-09-19T07:36:00;2.00;;;1.20;;
1370;SDS011;14306;49.942;11.570;2023-09-19T07:38:30;2.70;;;1.13;;
1370;SDS011;14306;49.942;11.570;2023-09-19T07:41:00;2.60;;;1.77;;
1370;SDS011;14306;49.942;11.570;2023-09-19T07:43:29;1.43;;;1.10;;
1370;SDS011;14306;49.942;11.570;2023-09-19T07:46:02;3.03;;;1.37;;
1370;SDS011;14306;49.942;11.570;2023-09-19T07:48:33;1.20;;;1.03;;
1370;SDS011;14306;49.942;11.570;2023-09-19T07:51:02;2.10;;;1.20;;
1370;SDS011;14306;49.942;11.570;2023-09-19T07:53:32;1.70;;;1.10;;
1370;SDS011;14306;49.942;11.570;2023-09-19T07:56:03;2.83;;;1.07;;
1370;SDS011;14306;49.942;11.570;2023-09-19T07:58:33;2.00;;;1.00;;
1370;SDS011;14306;49.942;11.570;2023-09-19T08:01:02;1.90;;;1.20;;
1370;SDS011;14306;49.942;11.570;2023-09-19T08:03:32;2.60;;;1.50;;
1370;SDS011;14306;49.942;11.570;2023-09-19T08:06:01;3.27;;;1.23;;
1370;SDS011;14306;49.942;11.570;2023-09-19T08:08:31;2.03;;;1.53;;
1370;SDS011;14306;49.942;11.570;2023-09-19T08:11:03;2.57;;;1.27;;
1370;SDS011;14306;49.942;11.570;2023-09-19T08:13:38;1.90;;;1.67;;
1370;SDS011;14306;49.942;11.570;2023-09-19T08:16:10;2.10;;;1.40;;
1370;SDS011;14306;49.942;11.570;2023-09-19T08:18:38;3.20;;;1.80;;
1370;SDS011;14306;49.942;11.570;2023-09-19T08:21:06;1.93;;;1.50;;
1370;SDS011;14306;49.942;11.570;2023-09-19T08:23:39;1.43;;;1.10;;
1370;SDS011;14306;49.942;11.570;2023-09-19T08:26:08;3.77;;;1.83;;
1370;SDS011;14306;49.942;11.570;2023-09-19T08:28:37;4.00;;;1.63;;
1370;SDS011;14306;49.942;11.570;2023-09-19T08:31:07;1.43;;;1.33;;
1370;SDS011;14306;49.942;11.570;2023-09-19T08:33:37;2.23;;;1.30;;
1370;SDS011;14306;49.942;11.570;2023-09-19T08:36:07;6.77;;;1.43;;
1370;SDS011;14306;49.942;11.570;2023-09-19T08:38:36;2.00;;;1.23;;
1370;SDS011;14306;49.942;11.570;2023-09-19T08:41:06;4.20;;;1.33;;
1370;SDS011;14306;49.942;11.570;2023-09-19T08:43:36;1.90;;;1.27;;
1370;SDS011;14306;49.942;11.570;2023-09-19T08:46:07;2.57;;;1.70;;
1370;SDS011;14306;49.942;11.570;2023-09-19T08:48:40;5.03;;;1.57;;
1370;SDS011;14306;49.942;11.570;2023-09-19T08:51:17;4.37;;;1.40;;
1370;SDS011;14306;49.942;11.570;2023-09-19T08:53:51;4.53;;;1.90;;
1370;SDS011;14306;49.942;11.570;2023-09-19T08:56:24;1.83;;;1.07;;
1370;SDS011;14306;49.942;11.570;2023-09-19T08:58:57;1.90;;;1.37;;
1370;SDS011;14306;49.942;11.570;2023-09-19T09:01:30;2.73;;;1.43;;
1370;SDS011;14306;49.942;11.570;2023-09-19T09:04:00;1.20;;;1.10;;
1370;SDS011;14306;49.942;11.570;2023-09-19T09:06:30;3.97;;;1.53;;
1370;SDS011;14306;49.942;11.570;2023-09-19T09:09:00;1.93;;;1.50;;
1370;SDS011;14306;49.942;11.570;2023-09-19T09:11:33;2.70;;;1.60;;
1370;SDS011;14306;49.942;11.570;2023-09-19T09:14:01;3.57;;;1.20;;
1370;SDS011;14306;49.942;11.570;2023-09-19T09:16:30;1.90;;;1.30;;
1370;SDS011;14306;49.942;11.570;2023-09-19T09:19:00;3.70;;;1.40;;
1370;SDS011;14306;49.942;11.570;2023-09-19T09:21:29;4.63;;;1.40;;
1370;SDS011;14306;49.942;11.570;2023-09-19T09:26:56;6.47;;;1.50;;
1370;SDS011;14306;49.942;11.570;2023-09-19T09:29:44;2.13;;;1.10;;
1370;SDS011;14306;49.942;11.570;2023-09-19T09:32:16;2.60;;;1.10;;
1370;SDS011;14306;49.942;11.570;2023-09-19T09:34:47;2.70;;;1.50;;
1370;SDS011;14306;49.942;11.570;2023-09-19T09:37:17;1.67;;;1.00;;
1370;SDS011;14306;49.942;11.570;2023-09-19T09:39:50;1.80;;;1.00;;
1370;SDS011;14306;49.942;11.570;2023-09-19T09:42:31;1.60;;;1.20;;
1370;SDS011;14306;49.942;11.570;2023-09-19T09:45:12;1.60;;;1.00;;
1370;SDS011;14306;49.942;11.570;2023-09-19T09:47:41;6.50;;;1.20;;
1370;SDS011;14306;49.942;11.570;2023-09-19T09:50:23;2.80;;;0.90;;
1370;SDS011;14306;49.942;11.570;2023-09-19T09:53:19;2.33;;;1.33;;
1370;SDS011;14306;49.942;11.570;2023-09-19T09:55:57;2.23;;;1.27;;
1370;SDS011;14306;49.942;11.570;2023-09-19T09:58:28;2.20;;;1.30;;
1370;SDS011;14306;49.942;11.570;2023-09-19T10:00:59;1.33;;;1.13;;
1370;SDS011;14306;49.942;11.570;2023-09-19T10:03:35;2.90;;;0.97;;
1370;SDS011;14306;49.942;11.570;2023-09-19T10:06:09;1.50;;;1.10;;
1370;SDS011;14306;49.942;11.570;2023-09-19T10:09:03;1.67;;;1.13;;
1370;SDS011;14306;49.942;11.570;2023-09-19T10:11:39;3.23;;;1.10;;
1370;SDS011;14306;49.942;11.570;2023-09-19T10:14:13;1.47;;;1.07;;
1370;SDS011;14306;49.942;11.570;2023-09-19T10:16:45;2.37;;;1.17;;
1370;SDS011;14306;49.942;11.570;2023-09-19T10:19:15;2.70;;;1.10;;
1370;SDS011;14306;49.942;11.570;2023-09-19T10:21:49;2.90;;;0.90;;
1370;SDS011;14306;49.942;11.570;2023-09-19T10:24:19;1.57;;;1.00;;
1370;SDS011;14306;49.942;11.570;2023-09-19T10:26:51;1.30;;;1.20;;
1370;SDS011;14306;49.942;11.570;2023-09-19T10:29:23;2.27;;;1.00;;
1370;SDS011;14306;49.942;11.570;2023-09-19T10:31:53;1.33;;;0.90;;
1370;SDS011;14306;49.942;11.570;2023-09-19T10:34:25;1.57;;;0.90;;
1370;SDS011;14306;49.942;11.570;2023-09-19T10:36:55;7.43;;;1.20;;
1370;SDS011;14306;49.942;11.570;2023-09-19T10:39:23;2.23;;;1.17;;
1370;SDS011;14306;49.942;11.570;2023-09-19T10:41:53;2.10;;;1.17;;
1370;SDS011;14306;49.942;11.570;2023-09-19T10:44:27;1.50;;;1.10;;
1370;SDS011;14306;49.942;11.570;2023-09-19T10:46:59;3.93;;;1.13;;
1370;SDS011;14306;49.942;11.570;2023-09-19T10:49:30;3.83;;;1.43;;
1370;SDS011;14306;49.942;11.570;2023-09-19T10:52:00;3.63;;;1.30;;
1370;SDS011;14306;49.942;11.570;2023-09-19T10:54:31;4.83;;;1.70;;
1370;SDS011;14306;49.942;11.570;2023-09-19T10:57:03;2.73;;;1.57;;
1370;SDS011;14306;49.942;11.570;2023-09-19T10:59:37;2.73;;;1.23;;
1370;SDS011;14306;49.942;11.570;2023-09-19T11:02:45;2.73;;;1.00;;
1370;SDS011;14306;49.942;11.570;2023-09-19T11:06:00;2.93;;;1.20;;
1370;SDS011;14306;49.942;11.570;2023-09-19T11:08:57;2.90;;;1.17;;
1370;SDS011;14306;49.942;11.570;2023-09-19T11:11:50;3.10;;;1.43;;
1370;SDS011;14306;49.942;11.570;2023-09-19T11:14:30;1.40;;;0.70;;
1370;SDS011;14306;49.942;11.570;2023-09-19T11:23:22;2.63;;;1.47;;
1370;SDS011;14306;49.942;11.570;2023-09-19T11:25:57;1.60;;;1.30;;
1370;SDS011;14306;49.942;11.570;2023-09-19T11:28:33;3.57;;;1.10;;
1370;SDS011;14306;49.942;11.570;2023-09-19T11:40:34;2.23;;;1.07;;
1370;SDS011;14306;49.942;11.570;2023-09-19T11:46:02;2.57;;;1.50;;
1370;SDS011;14306;49.942;11.570;2023-09-19T11:48:40;2.27;;;1.37;;
1370;SDS011;14306;49.942;11.570;2023-09-19T11:51:22;3.27;;;1.07;;
1370;SDS011;14306;49.942;11.570;2023-09-19T11:53:54;1.80;;;1.00;;
1370;SDS011;14306;49.942;11.570;2023-09-19T11:56:24;4.33;;;1.10;;
1370;SDS011;14306;49.942;11.570;2023-09-19T11:58:54;2.60;;;1.33;;
1370;SDS011;14306;49.942;11.570;2023-09-19T12:01:25;2.43;;;1.13;;
1370;SDS011;14306;49.942;11.570;2023-09-19T12:03:57;2.43;;;1.03;;
1370;SDS011;14306;49.942;11.570;2023-09-19T12:06:28;3.73;;;1.27;;
1370;SDS011;14306;49.942;11.570;2023-09-19T12:08:59;2.50;;;1.43;;
1370;SDS011;14306;49.942;11.570;2023-09-19T12:11:29;2.20;;;1.00;;
1370;SDS011;14306;49.942;11.570;2023-09-19T12:14:01;2.70;;;1.50;;
1370;SDS011;14306;49.942;11.570;2023-09-19T12:16:31;4.17;;;1.37;;
1370;SDS011;14306;49.942;11.570;2023-09-19T12:21:57;5.00;;;1.30;;
1370;SDS011;14306;49.942;11.570;2023-09-19T12:24:31;1.30;;;1.00;;
1370;SDS011;14306;49.942;11.570;2023-09-19T12:27:02;9.03;;;1.40;;
1370;SDS011;14306;49.942;11.570;2023-09-19T12:29:41;3.73;;;1.40;;
1370;SDS011;14306;49.942;11.570;2023-09-19T12:32:11;3.37;;;1.10;;
1370;SDS011;14306;49.942;11.570;2023-09-19T12:34:50;4.30;;;1.17;;
1370;SDS011;14306;49.942;11.570;2023-09-19T12:37:21;3.00;;;1.07;;
1370;SDS011;14306;49.942;11.570;2023-09-19T12:40:00;3.80;;;1.50;;
1370;SDS011;14306;49.942;11.570;2023-09-19T12:42:41;2.97;;;1.17;;
1370;SDS011;14306;49.942;11.570;2023-09-19T12:45:11;9.70;;;1.60;;
1370;SDS011;14306;49.942;11.570;2023-09-19T12:53:34;2.80;;;1.27;;
1370;SDS011;14306;49.942;11.570;2023-09-19T12:56:08;3.87;;;1.30;;
1370;SDS011;14306;49.942;11.570;2023-09-19T12:58:49;2.10;;;1.30;;
1370;SDS011;14306;49.942;11.570;2023-09-19T13:01:18;1.67;;;1.00;;
1370;SDS011;14306;49.942;11.570;2023-09-19T13:03:46;5.07;;;1.33;;
1370;SDS011;14306;49.942;11.570;2023-09-19T13:06:42;110.10;;;16.10;;
1370;SDS011;14306;49.942;11.570;2023-09-19T13:09:12;35.13;;;6.83;;
1370;SDS011;14306;49.942;11.570;2023-09-19T13:11:41;23.27;;;5.40;;
1370;SDS011;14306;49.942;11.570;2023-09-19T13:14:15;13.67;;;1.97;;
1370;SDS011;14306;49.942;11.570;2023-09-19T13:16:58;6.60;;;2.73;;
1370;SDS011;14306;49.942;11.570;2023-09-19T13:19:37;6.23;;;1.70;;
1370;SDS011;14306;49.942;11.570;2023-09-19T13:25:09;3.03;;;1.23;;
1370;SDS011;14306;49.942;11.570;2023-09-19T13:27:41;7.10;;;1.50;;
1370;SDS011;14306;49.942;11.570;2023-09-19T13:30:11;3.33;;;1.10;;
1370;SDS011;14306;49.942;11.570;2023-09-19T13:32:39;2.17;;;1.47;;
1370;SDS011;14306;49.942;11.570;2023-09-19T13:35:09;5.90;;;1.57;;
1370;SDS011;14306;49.942;11.570;2023-09-19T13:37:39;1.73;;;1.20;;
1370;SDS011;14306;49.942;11.570;2023-09-19T13:40:11;3.60;;;1.50;;
1370;SDS011;14306;49.942;11.570;2023-09-19T13:42:41;4.50;;;1.67;;
1370;SDS011;14306;49.942;11.570;2023-09-19T13:45:10;2.80;;;1.30;;
1370;SDS011;14306;49.942;11.570;2023-09-19T13:47:39;3.73;;;1.40;;
1370;SDS011;14306;49.942;11.570;2023-09-19T13:50:08;3.00;;;1.30;;
1370;SDS011;14306;49.942;11.570;2023-09-19T13:52:37;3.90;;;1.83;;
1370;SDS011;14306;49.942;11.570;2023-09-19T13:55:05;4.00;;;1.47;;
1370;SDS011;14306;49.942;11.570;2023-09-19T13:57:35;2.33;;;1.27;;
1370;SDS011;14306;49.942;11.570;2023-09-19T14:00:03;3.13;;;1.47;;
1370;SDS011;14306;49.942;11.570;2023-09-19T14:02:36;8.07;;;2.37;;
1370;SDS011;14306;49.942;11.570;2023-09-19T14:05:06;3.50;;;1.33;;
1370;SDS011;14306;49.942;11.570;2023-09-19T14:07:34;4.90;;;1.40;;
1370;SDS011;14306;49.942;11.570;2023-09-19T14:10:03;3.77;;;1.50;;
1370;SDS011;14306;49.942;11.570;2023-09-19T14:12:36;9.40;;;1.70;;
1370;SDS011;14306;49.942;11.570;2023-09-19T14:15:05;4.40;;;1.10;;
1370;SDS011;14306;49.942;11.570;2023-09-19T14:17:33;1.83;;;1.37;;
1370;SDS011;14306;49.942;11.570;2023-09-19T14:20:05;3.83;;;1.20;;
1370;SDS011;14306;49.942;11.570;2023-09-19T14:22:39;6.60;;;1.77;;
1370;SDS011;14306;49.942;11.570;2023-09-19T14:25:07;9.10;;;1.77;;
1370;SDS011;14306;49.942;11.570;2023-09-19T14:27:37;2.17;;;1.30;;
1370;SDS011;14306;49.942;11.570;2023-09-19T14:30:06;3.70;;;1.17;;
1370;SDS011;14306;49.942;11.570;2023-09-19T14:32:35;1.30;;;1.03;;
1370;SDS011;14306;49.942;11.570;2023-09-19T14:35:04;8.80;;;1.40;;
1370;SDS011;14306;49.942;11.570;2023-09-19T14:37:33;3.20;;;1.20;;
1370;SDS011;14306;49.942;11.570;2023-09-19T14:40:01;1.90;;;0.97;;
1370;SDS011;14306;49.942;11.570;2023-09-19T14:42:37;2.47;;;1.43;;
1370;SDS011;14306;49.942;11.570;2023-09-19T14:45:07;2.63;;;1.20;;
1370;SDS011;14306;49.942;11.570;2023-09-19T14:47:36;6.43;;;1.50;;
1370;SDS011;14306;49.942;11.570;2023-09-19T14:50:06;3.67;;;1.97;;
1370;SDS011;14306;49.942;11.570;2023-09-19T14:52:38;4.30;;;1.23;;
1370;SDS011;14306;49.942;11.570;2023-09-19T14:55:07;4.30;;;1.20;;
1370;SDS011;14306;49.942;11.570;2023-09-19T14:57:43;3.00;;;1.20;;
1370;SDS011;14306;49.942;11.570;2023-09-19T15:00:13;3.07;;;1.70;;
1370;SDS011;14306;49.942;11.570;2023-09-19T15:02:43;6.90;;;1.50;;
1370;SDS011;14306;49.942;11.570;2023-09-19T15:05:12;3.53;;;1.00;;
1370;SDS011;14306;49.942;11.570;2023-09-19T15:07:45;2.67;;;1.60;;
1370;SDS011;14306;49.942;11.570;2023-09-19T15:10:14;1.80;;;1.57;;
1370;SDS011;14306;49.942;11.570;2023-09-19T15:12:44;3.53;;;1.60;;
1370;SDS011;14306;49.942;11.570;2023-09-19T15:15:12;5.23;;;1.10;;
1370;SDS011;14306;49.942;11.570;2023-09-19T15:17:40;4.03;;;1.60;;
1370;SDS011;14306;49.942;11.570;2023-09-19T15:20:09;2.50;;;1.30;;
1370;SDS011;14306;49.942;11.570;2023-09-19T15:22:40;5.07;;;1.20;;
1370;SDS011;14306;49.942;11.570;2023-09-19T15:25:09;4.20;;;1.53;;
1370;SDS011;14306;49.942;11.570;2023-09-19T15:27:37;3.27;;;1.40;;
1370;SDS011;14306;49.942;11.570;2023-09-19T15:30:08;3.03;;;1.60;;
1370;SDS011;14306;49.942;11.570;2023-09-19T15:32:37;2.30;;;1.17;;
1370;SDS011;14306;49.942;11.570;2023-09-19T15:35:05;5.00;;;1.80;;
1370;SDS011;14306;49.942;11.570;2023-09-19T15:37:36;3.07;;;1.50;;
1370;SDS011;14306;49.942;11.570;2023-09-19T15:40:04;2.10;;;1.80;;
1370;SDS011;14306;49.942;11.570;2023-09-19T15:42:37;3.83;;;1.50;;
1370;SDS011;14306;49.942;11.570;2023-09-19T15:45:06;3.90;;;1.77;;
1370;SDS011;14306;49.942;11.570;2023-09-19T15:47:36;3.43;;;2.07;;